sensor_id;sensor_type;location;lat;lon;timestamp;temperature;humidity
22956;DHT22;40888;48.148;11.526;2023-04-24T00:01:48;10.30;99.90
22956;DHT22;40888;48.148;11.526;2023-04-24T00:04:14;10.20;99.90
22956;DHT22;40888;48.148;11.526;2023-04-24T00:06:42;10.20;99.90
22956;DHT22;40888;48.148;11.526;2023-04-24T00:09:09;10.20;99.90
22956;DHT22;40888;48.148;11.526;2023-04-24T00:11:36;10.10;99.90
22956;DHT22;40888;48.148;11.526;2023-04-24T00:14:02;10.20;99.90
22956;DHT22;40888;48.148;11.526;2023-04-24T00:16:28;10.10;99.90
22956;DHT22;40888;48.148;11.526;2023-04-24T00:18:54;10.10;99.90
22956;DHT22;40888;48.148;11.526;2023-04-24T00:21:20;10.20;99.90
22956;DHT22;40888;48.148;11.526;2023-04-24T00:23:47;10.10;99.90
22956;DHT22;40888;48.148;11.526;2023-04-24T00:26:13;10.10;99.90
22956;DHT22;40888;48.148;11.526;2023-04-24T00:28:39;10.10;99.90
22956;DHT22;40888;48.148;11.526;2023-04-24T00:31:05;9.90;99.90
22956;DHT22;40888;48.148;11.526;2023-04-24T00:33:30;9.90;99.90
22956;DHT22;40888;48.148;11.526;2023-04-24T00:35:56;10.00;99.90
22956;DHT22;40888;48.148;11.526;2023-04-24T00:38:22;10.00;99.90
22956;DHT22;40888;48.148;11.526;2023-04-24T00:40:48;9.90;99.90
22956;DHT22;40888;48.148;11.526;2023-04-24T00:43:16;9.90;99.90
22956;DHT22;40888;48.148;11.526;2023-04-24T00:45:41;9.90;99.90
22956;DHT22;40888;48.148;11.526;2023-04-24T00:48:07;9.80;99.90
22956;DHT22;40888;48.148;11.526;2023-04-24T00:50:35;9.80;99.90
22956;DHT22;40888;48.148;11.526;2023-04-24T00:53:01;9.70;99.90
22956;DHT22;40888;48.148;11.526;2023-04-24T00:55:27;9.70;99.90
22956;DHT22;40888;48.148;11.526;2023-04-24T00:57:52;9.70;99.90
22956;DHT22;40888;48.148;11.526;2023-04-24T01:00:18;9.60;99.90
22956;DHT22;40888;48.148;11.526;2023-04-24T01:02:45;9.60;99.90
22956;DHT22;40888;48.148;11.526;2023-04-24T01:05:12;9.70;99.90
22956;DHT22;40888;48.148;11.526;2023-04-24T01:07:39;9.60;99.90
22956;DHT22;40888;48.148;11.526;2023-04-24T01:10:07;9.70;99.90
22956;DHT22;40888;48.148;11.526;2023-04-24T01:12:34;9.60;99.90
22956;DHT22;40888;48.148;11.526;2023-04-24T01:15:00;9.60;99.90
22956;DHT22;40888;48.148;11.526;2023-04-24T01:17:26;9.70;99.90
22956;DHT22;40888;48.148;11.526;2023-04-24T01:19:52;9.70;99.90
22956;DHT22;40888;48.148;11.526;2023-04-24T01:22:22;9.60;99.90
22956;DHT22;40888;48.148;11.526;2023-04-24T01:24:48;9.60;99.90
22956;DHT22;40888;48.148;11.526;2023-04-24T01:27:14;9.50;99.90
22956;DHT22;40888;48.148;11.526;2023-04-24T01:29:40;9.60;99.90
22956;DHT22;40888;48.148;11.526;2023-04-24T01:32:06;9.60;99.90
22956;DHT22;40888;48.148;11.526;2023-04-24T01:34:32;9.50;99.90
22956;DHT22;40888;48.148;11.526;2023-04-24T01:36:58;9.40;99.90
22956;DHT22;40888;48.148;11.526;2023-04-24T01:39:24;9.40;99.90
22956;DHT22;40888;48.148;11.526;2023-04-24T01:41:55;9.40;99.90
22956;DHT22;40888;48.148;11.526;2023-04-24T01:44:21;9.50;99.90
22956;DHT22;40888;48.148;11.526;2023-04-24T01:46:47;9.40;99.90
22956;DHT22;40888;48.148;11.526;2023-04-24T01:49:12;9.40;99.90
22956;DHT22;40888;48.148;11.526;2023-04-24T01:51:38;9.30;99.90
22956;DHT22;40888;48.148;11.526;2023-04-24T01:54:04;9.30;99.90
22956;DHT22;40888;48.148;11.526;2023-04-24T01:56:33;9.40;99.90
22956;DHT22;40888;48.148;11.526;2023-04-24T01:59:00;9.40;99.90
22956;DHT22;40888;48.148;11.526;2023-04-24T02:01:26;9.30;99.90
22956;DHT22;40888;48.148;11.526;2023-04-24T02:03:52;9.50;99.90
22956;DHT22;40888;48.148;11.526;2023-04-24T02:06:18;9.40;99.90
22956;DHT22;40888;48.148;11.526;2023-04-24T02:08:43;9.40;99.90
22956;DHT22;40888;48.148;11.526;2023-04-24T02:11:09;9.40;99.90
22956;DHT22;40888;48.148;11.526;2023-04-24T02:13:35;9.30;99.90
22956;DHT22;40888;48.148;11.526;2023-04-24T02:16:01;9.30;99.90
22956;DHT22;40888;48.148;11.526;2023-04-24T02:18:27;9.20;99.90
22956;DHT22;40888;48.148;11.526;2023-04-24T02:20:53;9.20;99.90
22956;DHT22;40888;48.148;11.526;2023-04-24T02:23:19;9.20;99.90
22956;DHT22;40888;48.148;11.526;2023-04-24T02:25:45;9.30;99.90
22956;DHT22;40888;48.148;11.526;2023-04-24T02:28:11;9.30;99.90
22956;DHT22;40888;48.148;11.526;2023-04-24T02:30:36;9.20;99.90
22956;DHT22;40888;48.148;11.526;2023-04-24T02:33:02;9.20;99.90
22956;DHT22;40888;48.148;11.526;2023-04-24T02:35:28;9.20;99.90
22956;DHT22;40888;48.148;11.526;2023-04-24T02:37:55;9.20;99.90
22956;DHT22;40888;48.148;11.526;2023-04-24T02:40:20;9.20;99.90
22956;DHT22;40888;48.148;11.526;2023-04-24T02:42:46;9.30;99.90
22956;DHT22;40888;48.148;11.526;2023-04-24T02:45:12;9.20;99.90
22956;DHT22;40888;48.148;11.526;2023-04-24T02:47:38;9.20;99.90
22956;DHT22;40888;48.148;11.526;2023-04-24T02:50:04;9.20;99.90
22956;DHT22;40888;48.148;11.526;2023-04-24T02:52:30;9.30;99.90
22956;DHT22;40888;48.148;11.526;2023-04-24T02:54:55;9.20;99.90
22956;DHT22;40888;48.148;11.526;2023-04-24T02:57:21;9.10;99.90
22956;DHT22;40888;48.148;11.526;2023-04-24T02:59:47;9.20;99.90
22956;DHT22;40888;48.148;11.526;2023-04-24T03:02:12;9.20;99.90
22956;DHT22;40888;48.148;11.526;2023-04-24T03:04:38;9.20;99.90
22956;DHT22;40888;48.148;11.526;2023-04-24T03:07:05;9.10;99.90
22956;DHT22;40888;48.148;11.526;2023-04-24T03:09:31;9.20;99.90
22956;DHT22;40888;48.148;11.526;2023-04-24T03:11:57;9.10;99.90
22956;DHT22;40888;48.148;11.526;2023-04-24T03:14:23;9.20;99.90
22956;DHT22;40888;48.148;11.526;2023-04-24T03:16:49;9.10;99.90
22956;DHT22;40888;48.148;11.526;2023-04-24T03:19:15;9.10;99.90
22956;DHT22;40888;48.148;11.526;2023-04-24T03:21:41;9.10;99.90
22956;DHT22;40888;48.148;11.526;2023-04-24T03:24:08;9.10;99.90
22956;DHT22;40888;48.148;11.526;2023-04-24T03:26:34;9.10;99.90
22956;DHT22;40888;48.148;11.526;2023-04-24T03:29:01;9.10;99.90
22956;DHT22;40888;48.148;11.526;2023-04-24T03:31:26;9.00;99.90
22956;DHT22;40888;48.148;11.526;2023-04-24T03:33:52;9.00;99.90
22956;DHT22;40888;48.148;11.526;2023-04-24T03:36:18;9.00;99.90
22956;DHT22;40888;48.148;11.526;2023-04-24T03:38:44;9.00;99.90
22956;DHT22;40888;48.148;11.526;2023-04-24T03:41:11;9.00;99.90
22956;DHT22;40888;48.148;11.526;2023-04-24T03:43:37;9.00;99.90
22956;DHT22;40888;48.148;11.526;2023-04-24T03:46:03;9.00;99.90
22956;DHT22;40888;48.148;11.526;2023-04-24T03:48:29;9.00;99.90
22956;DHT22;40888;48.148;11.526;2023-04-24T03:50:55;9.00;99.90
22956;DHT22;40888;48.148;11.526;2023-04-24T03:53:21;9.00;99.90
22956;DHT22;40888;48.148;11.526;2023-04-24T03:55:47;8.90;99.90
22956;DHT22;40888;48.148;11.526;2023-04-24T03:58:13;8.90;99.90
22956;DHT22;40888;48.148;11.526;2023-04-24T04:00:41;9.00;99.90
22956;DHT22;40888;48.148;11.526;2023-04-24T04:03:07;9.00;99.90
22956;DHT22;40888;48.148;11.526;2023-04-24T04:05:33;9.10;99.90
22956;DHT22;40888;48.148;11.526;2023-04-24T04:07:58;8.90;99.90
22956;DHT22;40888;48.148;11.526;2023-04-24T04:10:24;8.90;99.90
22956;DHT22;40888;48.148;11.526;2023-04-24T04:12:50;8.80;99.90
22956;DHT22;40888;48.148;11.526;2023-04-24T04:15:15;8.90;99.90
22956;DHT22;40888;48.148;11.526;2023-04-24T04:17:41;8.90;99.90
22956;DHT22;40888;48.148;11.526;2023-04-24T04:20:07;8.80;99.90
22956;DHT22;40888;48.148;11.526;2023-04-24T04:22:36;8.80;99.90
22956;DHT22;40888;48.148;11.526;2023-04-24T04:25:02;8.80;99.90
22956;DHT22;40888;48.148;11.526;2023-04-24T04:27:28;8.90;99.90
22956;DHT22;40888;48.148;11.526;2023-04-24T04:30:01;8.90;99.90
22956;DHT22;40888;48.148;11.526;2023-04-24T04:32:33;8.90;99.90
22956;DHT22;40888;48.148;11.526;2023-04-24T04:35:02;8.90;99.90
22956;DHT22;40888;48.148;11.526;2023-04-24T04:37:29;8.90;99.90
22956;DHT22;40888;48.148;11.526;2023-04-24T04:39:55;8.90;99.90
22956;DHT22;40888;48.148;11.526;2023-04-24T04:42:21;8.90;99.90
22956;DHT22;40888;48.148;11.526;2023-04-24T04:44:47;8.90;99.90
22956;DHT22;40888;48.148;11.526;2023-04-24T04:47:12;8.90;99.90
22956;DHT22;40888;48.148;11.526;2023-04-24T04:49:39;8.90;99.90
22956;DHT22;40888;48.148;11.526;2023-04-24T04:52:06;9.00;99.90
22956;DHT22;40888;48.148;11.526;2023-04-24T04:54:32;8.90;99.90
22956;DHT22;40888;48.148;11.526;2023-04-24T04:56:58;8.90;99.90
22956;DHT22;40888;48.148;11.526;2023-04-24T04:59:24;8.90;99.90
22956;DHT22;40888;48.148;11.526;2023-04-24T05:01:50;8.80;99.90
22956;DHT22;40888;48.148;11.526;2023-04-24T05:04:15;8.80;99.90
22956;DHT22;40888;48.148;11.526;2023-04-24T05:06:41;8.80;99.90
22956;DHT22;40888;48.148;11.526;2023-04-24T05:09:07;8.80;99.90
22956;DHT22;40888;48.148;11.526;2023-04-24T05:11:33;8.80;99.90
22956;DHT22;40888;48.148;11.526;2023-04-24T05:13:59;8.80;99.90
22956;DHT22;40888;48.148;11.526;2023-04-24T05:16:24;8.80;99.90
22956;DHT22;40888;48.148;11.526;2023-04-24T05:18:50;8.80;99.90
22956;DHT22;40888;48.148;11.526;2023-04-24T05:21:16;8.80;99.90
22956;DHT22;40888;48.148;11.526;2023-04-24T05:23:42;8.80;99.90
22956;DHT22;40888;48.148;11.526;2023-04-24T05:26:07;8.90;99.90
22956;DHT22;40888;48.148;11.526;2023-04-24T05:28:33;8.90;99.90
22956;DHT22;40888;48.148;11.526;2023-04-24T05:30:59;8.90;99.90
22956;DHT22;40888;48.148;11.526;2023-04-24T05:33:25;8.90;99.90
22956;DHT22;40888;48.148;11.526;2023-04-24T05:35:51;9.00;99.90
22956;DHT22;40888;48.148;11.526;2023-04-24T05:38:16;9.00;99.90
22956;DHT22;40888;48.148;11.526;2023-04-24T05:40:45;9.00;99.90
22956;DHT22;40888;48.148;11.526;2023-04-24T05:43:11;9.00;99.90
22956;DHT22;40888;48.148;11.526;2023-04-24T05:45:38;9.00;99.90
22956;DHT22;40888;48.148;11.526;2023-04-24T05:48:04;9.00;99.90
22956;DHT22;40888;48.148;11.526;2023-04-24T05:50:29;9.10;99.90
22956;DHT22;40888;48.148;11.526;2023-04-24T05:52:55;9.10;99.90
22956;DHT22;40888;48.148;11.526;2023-04-24T05:55:24;9.10;99.90
22956;DHT22;40888;48.148;11.526;2023-04-24T05:57:51;9.10;99.90
22956;DHT22;40888;48.148;11.526;2023-04-24T06:00:17;9.20;99.90
22956;DHT22;40888;48.148;11.526;2023-04-24T06:02:45;9.10;99.90
22956;DHT22;40888;48.148;11.526;2023-04-24T06:05:11;9.20;99.90
22956;DHT22;40888;48.148;11.526;2023-04-24T06:07:37;9.20;99.90
22956;DHT22;40888;48.148;11.526;2023-04-24T06:10:03;9.20;99.90
22956;DHT22;40888;48.148;11.526;2023-04-24T06:12:29;9.20;99.90
22956;DHT22;40888;48.148;11.526;2023-04-24T06:14:55;9.20;99.90
22956;DHT22;40888;48.148;11.526;2023-04-24T06:17:23;9.20;99.90
22956;DHT22;40888;48.148;11.526;2023-04-24T06:19:49;9.30;99.90
22956;DHT22;40888;48.148;11.526;2023-04-24T06:22:14;9.40;99.90
22956;DHT22;40888;48.148;11.526;2023-04-24T06:24:40;9.50;99.90
22956;DHT22;40888;48.148;11.526;2023-04-24T06:27:06;9.50;99.90
22956;DHT22;40888;48.148;11.526;2023-04-24T06:29:33;9.50;99.90
22956;DHT22;40888;48.148;11.526;2023-04-24T06:31:59;9.50;99.90
22956;DHT22;40888;48.148;11.526;2023-04-24T06:34:25;9.60;99.90
22956;DHT22;40888;48.148;11.526;2023-04-24T06:37:00;9.60;99.90
22956;DHT22;40888;48.148;11.526;2023-04-24T06:39:26;9.70;99.90
22956;DHT22;40888;48.148;11.526;2023-04-24T06:41:52;9.70;99.90
22956;DHT22;40888;48.148;11.526;2023-04-24T06:44:17;9.70;99.90
22956;DHT22;40888;48.148;11.526;2023-04-24T06:46:43;9.80;99.90
22956;DHT22;40888;48.148;11.526;2023-04-24T06:49:09;9.90;99.90
22956;DHT22;40888;48.148;11.526;2023-04-24T06:51:35;10.00;99.90
22956;DHT22;40888;48.148;11.526;2023-04-24T06:54:01;10.00;99.90
22956;DHT22;40888;48.148;11.526;2023-04-24T06:56:27;10.00;99.90
22956;DHT22;40888;48.148;11.526;2023-04-24T06:58:54;10.10;99.90
22956;DHT22;40888;48.148;11.526;2023-04-24T07:01:20;10.10;99.90
22956;DHT22;40888;48.148;11.526;2023-04-24T07:03:49;10.20;99.90
22956;DHT22;40888;48.148;11.526;2023-04-24T07:06:15;10.20;99.90
22956;DHT22;40888;48.148;11.526;2023-04-24T07:08:44;10.20;99.90
22956;DHT22;40888;48.148;11.526;2023-04-24T07:11:09;10.30;99.90
22956;DHT22;40888;48.148;11.526;2023-04-24T07:13:35;10.30;99.90
22956;DHT22;40888;48.148;11.526;2023-04-24T07:16:01;10.30;99.90
22956;DHT22;40888;48.148;11.526;2023-04-24T07:18:26;10.30;99.90
22956;DHT22;40888;48.148;11.526;2023-04-24T07:20:52;10.30;99.90
22956;DHT22;40888;48.148;11.526;2023-04-24T07:23:19;10.30;99.90
22956;DHT22;40888;48.148;11.526;2023-04-24T07:25:45;10.30;99.90
22956;DHT22;40888;48.148;11.526;2023-04-24T07:28:10;10.40;99.90
22956;DHT22;40888;48.148;11.526;2023-04-24T07:30:36;10.40;99.90
22956;DHT22;40888;48.148;11.526;2023-04-24T07:33:02;10.40;99.90
22956;DHT22;40888;48.148;11.526;2023-04-24T07:35:27;10.40;99.90
22956;DHT22;40888;48.148;11.526;2023-04-24T07:37:53;10.50;99.90
22956;DHT22;40888;48.148;11.526;2023-04-24T07:40:20;10.50;99.90
22956;DHT22;40888;48.148;11.526;2023-04-24T07:42:46;10.50;99.90
22956;DHT22;40888;48.148;11.526;2023-04-24T07:45:14;10.50;99.90
22956;DHT22;40888;48.148;11.526;2023-04-24T07:47:43;10.50;99.90
22956;DHT22;40888;48.148;11.526;2023-04-24T07:50:11;10.40;99.90
22956;DHT22;40888;48.148;11.526;2023-04-24T07:52:37;10.40;99.90
22956;DHT22;40888;48.148;11.526;2023-04-24T07:55:03;10.40;99.90
22956;DHT22;40888;48.148;11.526;2023-04-24T07:57:30;10.50;99.90
22956;DHT22;40888;48.148;11.526;2023-04-24T07:59:56;10.50;99.90
22956;DHT22;40888;48.148;11.526;2023-04-24T08:02:21;10.50;99.90
22956;DHT22;40888;48.148;11.526;2023-04-24T08:04:52;10.50;99.90
22956;DHT22;40888;48.148;11.526;2023-04-24T08:07:19;10.50;99.90
22956;DHT22;40888;48.148;11.526;2023-04-24T08:09:45;10.60;99.90
22956;DHT22;40888;48.148;11.526;2023-04-24T08:12:11;10.60;99.90
22956;DHT22;40888;48.148;11.526;2023-04-24T08:14:36;10.60;99.90
22956;DHT22;40888;48.148;11.526;2023-04-24T08:17:02;10.60;99.90
22956;DHT22;40888;48.148;11.526;2023-04-24T08:19:29;10.60;99.90
22956;DHT22;40888;48.148;11.526;2023-04-24T08:21:55;10.70;99.90
22956;DHT22;40888;48.148;11.526;2023-04-24T08:24:20;10.70;99.90
22956;DHT22;40888;48.148;11.526;2023-04-24T08:26:46;10.60;99.90
22956;DHT22;40888;48.148;11.526;2023-04-24T08:29:16;10.50;99.90
22956;DHT22;40888;48.148;11.526;2023-04-24T08:31:41;10.30;99.90
22956;DHT22;40888;48.148;11.526;2023-04-24T08:34:07;10.20;99.90
22956;DHT22;40888;48.148;11.526;2023-04-24T08:36:33;10.10;99.90
22956;DHT22;40888;48.148;11.526;2023-04-24T08:38:59;9.90;99.90
22956;DHT22;40888;48.148;11.526;2023-04-24T08:41:27;9.70;99.90
22956;DHT22;40888;48.148;11.526;2023-04-24T08:43:53;9.60;99.90
22956;DHT22;40888;48.148;11.526;2023-04-24T08:46:20;9.60;99.90
22956;DHT22;40888;48.148;11.526;2023-04-24T08:48:48;9.60;99.90
22956;DHT22;40888;48.148;11.526;2023-04-24T08:51:15;9.70;99.90
22956;DHT22;40888;48.148;11.526;2023-04-24T08:53:40;9.80;99.90
22956;DHT22;40888;48.148;11.526;2023-04-24T08:56:07;9.90;99.90
22956;DHT22;40888;48.148;11.526;2023-04-24T08:58:33;9.90;99.90
22956;DHT22;40888;48.148;11.526;2023-04-24T09:00:59;9.80;99.90
22956;DHT22;40888;48.148;11.526;2023-04-24T09:03:27;9.70;99.90
22956;DHT22;40888;48.148;11.526;2023-04-24T09:05:54;9.70;99.90
22956;DHT22;40888;48.148;11.526;2023-04-24T09:08:24;9.60;99.90
22956;DHT22;40888;48.148;11.526;2023-04-24T09:10:50;9.60;99.90
22956;DHT22;40888;48.148;11.526;2023-04-24T09:13:17;9.50;99.90
22956;DHT22;40888;48.148;11.526;2023-04-24T09:15:43;9.60;99.90
22956;DHT22;40888;48.148;11.526;2023-04-24T09:18:09;9.70;99.90
22956;DHT22;40888;48.148;11.526;2023-04-24T09:20:35;9.80;99.90
22956;DHT22;40888;48.148;11.526;2023-04-24T09:23:21;9.80;99.90
22956;DHT22;40888;48.148;11.526;2023-04-24T09:25:54;9.90;99.90
22956;DHT22;40888;48.148;11.526;2023-04-24T09:28:46;10.00;99.90
22956;DHT22;40888;48.148;11.526;2023-04-24T09:31:13;10.00;99.90
22956;DHT22;40888;48.148;11.526;2023-04-24T09:33:40;10.00;99.90
22956;DHT22;40888;48.148;11.526;2023-04-24T09:36:08;10.10;99.90
22956;DHT22;40888;48.148;11.526;2023-04-24T09:38:36;10.20;99.90
22956;DHT22;40888;48.148;11.526;2023-04-24T09:41:05;10.30;99.90
22956;DHT22;40888;48.148;11.526;2023-04-24T09:43:31;10.40;99.90
22956;DHT22;40888;48.148;11.526;2023-04-24T09:45:58;10.40;99.90
22956;DHT22;40888;48.148;11.526;2023-04-24T09:48:35;10.40;99.90
22956;DHT22;40888;48.148;11.526;2023-04-24T09:51:02;10.40;99.90
22956;DHT22;40888;48.148;11.526;2023-04-24T09:53:29;10.50;99.90
22956;DHT22;40888;48.148;11.526;2023-04-24T09:55:56;10.50;99.90
22956;DHT22;40888;48.148;11.526;2023-04-24T09:58:25;10.50;99.90
22956;DHT22;40888;48.148;11.526;2023-04-24T10:00:56;10.50;99.90
22956;DHT22;40888;48.148;11.526;2023-04-24T10:03:30;10.60;99.90
22956;DHT22;40888;48.148;11.526;2023-04-24T10:06:00;10.80;99.90
22956;DHT22;40888;48.148;11.526;2023-04-24T10:08:26;10.90;99.90
22956;DHT22;40888;48.148;11.526;2023-04-24T10:10:58;11.00;99.90
22956;DHT22;40888;48.148;11.526;2023-04-24T10:13:25;11.00;99.90
22956;DHT22;40888;48.148;11.526;2023-04-24T10:15:51;11.00;99.90
22956;DHT22;40888;48.148;11.526;2023-04-24T10:18:17;11.00;99.90
22956;DHT22;40888;48.148;11.526;2023-04-24T10:20:44;11.00;99.90
22956;DHT22;40888;48.148;11.526;2023-04-24T10:23:10;11.00;99.90
22956;DHT22;40888;48.148;11.526;2023-04-24T10:25:37;11.00;99.90
22956;DHT22;40888;48.148;11.526;2023-04-24T10:28:03;11.10;99.90
22956;DHT22;40888;48.148;11.526;2023-04-24T10:30:35;11.10;99.90
22956;DHT22;40888;48.148;11.526;2023-04-24T10:33:05;11.30;99.90
22956;DHT22;40888;48.148;11.526;2023-04-24T10:35:35;11.50;99.90
22956;DHT22;40888;48.148;11.526;2023-04-24T10:38:09;11.50;99.90
22956;DHT22;40888;48.148;11.526;2023-04-24T10:40:36;11.50;99.90
22956;DHT22;40888;48.148;11.526;2023-04-24T10:43:03;11.30;99.90
22956;DHT22;40888;48.148;11.526;2023-04-24T10:45:31;11.20;99.90
22956;DHT22;40888;48.148;11.526;2023-04-24T10:47:58;11.20;99.90
22956;DHT22;40888;48.148;11.526;2023-04-24T10:50:28;11.20;99.90
22956;DHT22;40888;48.148;11.526;2023-04-24T10:53:07;10.70;99.90
22956;DHT22;40888;48.148;11.526;2023-04-24T10:55:49;9.50;99.90
22956;DHT22;40888;48.148;11.526;2023-04-24T10:58:16;9.30;99.90
22956;DHT22;40888;48.148;11.526;2023-04-24T11:00:43;8.70;99.90
22956;DHT22;40888;48.148;11.526;2023-04-24T11:03:29;8.70;99.90
22956;DHT22;40888;48.148;11.526;2023-04-24T11:06:01;8.70;99.90
22956;DHT22;40888;48.148;11.526;2023-04-24T11:08:44;8.70;99.90
22956;DHT22;40888;48.148;11.526;2023-04-24T11:11:15;8.90;99.90
22956;DHT22;40888;48.148;11.526;2023-04-24T11:16:32;9.20;99.90
22956;DHT22;40888;48.148;11.526;2023-04-24T11:19:03;9.50;99.90
22956;DHT22;40888;48.148;11.526;2023-04-24T11:21:46;9.90;99.90
22956;DHT22;40888;48.148;11.526;2023-04-24T11:26:55;10.70;99.90
22956;DHT22;40888;48.148;11.526;2023-04-24T11:29:22;11.00;99.90
22956;DHT22;40888;48.148;11.526;2023-04-24T11:31:49;11.30;99.90
22956;DHT22;40888;48.148;11.526;2023-04-24T11:34:17;11.40;99.90
22956;DHT22;40888;48.148;11.526;2023-04-24T11:36:47;11.60;99.90
22956;DHT22;40888;48.148;11.526;2023-04-24T11:39:14;11.40;99.90
22956;DHT22;40888;48.148;11.526;2023-04-24T11:41:40;11.30;99.90
22956;DHT22;40888;48.148;11.526;2023-04-24T11:44:08;11.30;99.90
22956;DHT22;40888;48.148;11.526;2023-04-24T11:46:35;11.40;99.90
22956;DHT22;40888;48.148;11.526;2023-04-24T11:49:03;11.50;99.90
22956;DHT22;40888;48.148;11.526;2023-04-24T11:51:29;11.70;99.90
22956;DHT22;40888;48.148;11.526;2023-04-24T11:53:55;11.70;99.90
22956;DHT22;40888;48.148;11.526;2023-04-24T11:56:23;11.70;99.90
22956;DHT22;40888;48.148;11.526;2023-04-24T11:58:52;11.70;99.90
22956;DHT22;40888;48.148;11.526;2023-04-24T12:01:18;11.70;99.90
22956;DHT22;40888;48.148;11.526;2023-04-24T12:03:48;11.70;99.90
22956;DHT22;40888;48.148;11.526;2023-04-24T12:06:14;12.00;99.90
22956;DHT22;40888;48.148;11.526;2023-04-24T12:08:40;12.10;99.90
22956;DHT22;40888;48.148;11.526;2023-04-24T12:11:07;12.10;99.90
22956;DHT22;40888;48.148;11.526;2023-04-24T12:13:33;11.90;99.90
22956;DHT22;40888;48.148;11.526;2023-04-24T12:16:02;11.90;99.90
22956;DHT22;40888;48.148;11.526;2023-04-24T12:18:28;11.80;99.90
22956;DHT22;40888;48.148;11.526;2023-04-24T12:20:55;12.00;99.90
22956;DHT22;40888;48.148;11.526;2023-04-24T12:23:43;12.10;99.90
22956;DHT22;40888;48.148;11.526;2023-04-24T12:26:09;12.10;99.90
22956;DHT22;40888;48.148;11.526;2023-04-24T12:28:36;12.30;99.90
22956;DHT22;40888;48.148;11.526;2023-04-24T12:31:02;12.30;99.90
22956;DHT22;40888;48.148;11.526;2023-04-24T12:33:28;12.40;99.90
22956;DHT22;40888;48.148;11.526;2023-04-24T12:35:57;12.40;99.90
22956;DHT22;40888;48.148;11.526;2023-04-24T12:38:25;12.60;99.90
22956;DHT22;40888;48.148;11.526;2023-04-24T12:41:12;12.70;99.90
22956;DHT22;40888;48.148;11.526;2023-04-24T12:43:38;12.80;99.90
22956;DHT22;40888;48.148;11.526;2023-04-24T12:46:05;13.00;99.90
22956;DHT22;40888;48.148;11.526;2023-04-24T12:48:31;13.20;99.70
22956;DHT22;40888;48.148;11.526;2023-04-24T12:50:58;13.20;92.80
22956;DHT22;40888;48.148;11.526;2023-04-24T12:53:27;13.00;99.10
22956;DHT22;40888;48.148;11.526;2023-04-24T12:55:55;13.20;99.90
22956;DHT22;40888;48.148;11.526;2023-04-24T12:58:21;13.20;99.90
22956;DHT22;40888;48.148;11.526;2023-04-24T13:00:47;13.30;89.90
22956;DHT22;40888;48.148;11.526;2023-04-24T13:03:13;13.30;78.60
22956;DHT22;40888;48.148;11.526;2023-04-24T13:05:39;13.20;76.20
22956;DHT22;40888;48.148;11.526;2023-04-24T13:08:05;13.00;84.40
22956;DHT22;40888;48.148;11.526;2023-04-24T13:10:31;12.90;79.30
22956;DHT22;40888;48.148;11.526;2023-04-24T13:12:57;12.70;98.60
22956;DHT22;40888;48.148;11.526;2023-04-24T13:15:23;12.40;99.90
22956;DHT22;40888;48.148;11.526;2023-04-24T13:17:52;12.20;99.90
22956;DHT22;40888;48.148;11.526;2023-04-24T13:20:18;12.10;99.90
22956;DHT22;40888;48.148;11.526;2023-04-24T13:22:44;12.20;99.90
22956;DHT22;40888;48.148;11.526;2023-04-24T13:25:10;12.20;99.90
22956;DHT22;40888;48.148;11.526;2023-04-24T13:27:38;12.20;99.90
22956;DHT22;40888;48.148;11.526;2023-04-24T13:30:04;12.20;99.90
22956;DHT22;40888;48.148;11.526;2023-04-24T13:32:30;12.50;99.90
22956;DHT22;40888;48.148;11.526;2023-04-24T13:34:56;12.80;99.90
22956;DHT22;40888;48.148;11.526;2023-04-24T13:37:22;12.90;99.90
22956;DHT22;40888;48.148;11.526;2023-04-24T13:39:48;13.00;94.50
22956;DHT22;40888;48.148;11.526;2023-04-24T13:42:14;12.90;96.50
22956;DHT22;40888;48.148;11.526;2023-04-24T13:44:40;12.80;90.00
22956;DHT22;40888;48.148;11.526;2023-04-24T13:47:05;12.80;95.00
22956;DHT22;40888;48.148;11.526;2023-04-24T13:49:31;12.70;94.40
22956;DHT22;40888;48.148;11.526;2023-04-24T13:51:57;12.70;86.20
22956;DHT22;40888;48.148;11.526;2023-04-24T13:54:23;12.60;78.60
22956;DHT22;40888;48.148;11.526;2023-04-24T13:56:51;12.60;74.40
22956;DHT22;40888;48.148;11.526;2023-04-24T13:59:17;12.60;71.30
22956;DHT22;40888;48.148;11.526;2023-04-24T14:01:44;12.60;70.50
22956;DHT22;40888;48.148;11.526;2023-04-24T14:04:10;12.60;71.30
22956;DHT22;40888;48.148;11.526;2023-04-24T14:06:36;12.70;74.60
22956;DHT22;40888;48.148;11.526;2023-04-24T14:09:02;12.90;75.50
22956;DHT22;40888;48.148;11.526;2023-04-24T14:11:28;13.10;74.80
22956;DHT22;40888;48.148;11.526;2023-04-24T14:13:54;12.90;86.70
22956;DHT22;40888;48.148;11.526;2023-04-24T14:16:22;12.90;95.10
22956;DHT22;40888;48.148;11.526;2023-04-24T14:18:47;12.70;93.60
22956;DHT22;40888;48.148;11.526;2023-04-24T14:21:13;12.80;94.90
22956;DHT22;40888;48.148;11.526;2023-04-24T14:23:39;12.90;91.00
22956;DHT22;40888;48.148;11.526;2023-04-24T14:26:04;13.20;86.10
22956;DHT22;40888;48.148;11.526;2023-04-24T14:28:30;13.10;77.40
22956;DHT22;40888;48.148;11.526;2023-04-24T14:30:56;13.10;77.70
22956;DHT22;40888;48.148;11.526;2023-04-24T14:33:22;13.30;79.90
22956;DHT22;40888;48.148;11.526;2023-04-24T14:35:48;13.50;76.10
22956;DHT22;40888;48.148;11.526;2023-04-24T14:38:13;13.40;74.00
22956;DHT22;40888;48.148;11.526;2023-04-24T14:40:40;13.50;74.80
22956;DHT22;40888;48.148;11.526;2023-04-24T14:43:06;13.30;72.70
22956;DHT22;40888;48.148;11.526;2023-04-24T14:45:32;13.20;72.20
22956;DHT22;40888;48.148;11.526;2023-04-24T14:47:58;13.00;72.30
22956;DHT22;40888;48.148;11.526;2023-04-24T14:50:24;12.90;71.90
22956;DHT22;40888;48.148;11.526;2023-04-24T14:52:54;13.00;72.30
22956;DHT22;40888;48.148;11.526;2023-04-24T14:55:22;12.90;68.00
22956;DHT22;40888;48.148;11.526;2023-04-24T14:57:48;13.00;69.30
22956;DHT22;40888;48.148;11.526;2023-04-24T15:00:14;13.00;67.10
22956;DHT22;40888;48.148;11.526;2023-04-24T15:02:40;13.10;67.70
22956;DHT22;40888;48.148;11.526;2023-04-24T15:05:09;13.00;67.10
22956;DHT22;40888;48.148;11.526;2023-04-24T15:07:35;13.10;66.20
22956;DHT22;40888;48.148;11.526;2023-04-24T15:10:02;13.20;66.90
22956;DHT22;40888;48.148;11.526;2023-04-24T15:12:28;13.00;64.50
22956;DHT22;40888;48.148;11.526;2023-04-24T15:14:54;12.80;63.60
22956;DHT22;40888;48.148;11.526;2023-04-24T15:17:20;12.80;63.80
22956;DHT22;40888;48.148;11.526;2023-04-24T15:19:46;12.80;63.90
22956;DHT22;40888;48.148;11.526;2023-04-24T15:22:11;12.80;63.20
22956;DHT22;40888;48.148;11.526;2023-04-24T15:24:37;12.80;62.00
22956;DHT22;40888;48.148;11.526;2023-04-24T15:27:03;13.00;63.80